createdAt,value
2022-10-24T00:00:03.817Z,0.00
2022-10-24T00:01:03.804Z,0.00
2022-10-24T00:02:03.735Z,0.00
2022-10-24T00:03:03.761Z,0.00
2022-10-24T00:04:03.689Z,0.00
2022-10-24T00:05:03.683Z,0.00
2022-10-24T00:06:03.777Z,0.00
2022-10-24T00:07:03.696Z,0.00
2022-10-24T00:08:03.673Z,0.00
2022-10-24T00:09:03.646Z,0.00
2022-10-24T00:10:03.694Z,0.00
2022-10-24T00:11:03.648Z,0.00
2022-10-24T00:12:03.646Z,0.00
2022-10-24T00:13:03.614Z,0.00
2022-10-24T00:14:03.598Z,0.00
2022-10-24T00:15:03.602Z,0.00
2022-10-24T00:16:03.576Z,0.00
2022-10-24T00:17:03.591Z,0.00
2022-10-24T00:18:03.541Z,0.00
2022-10-24T00:19:03.559Z,0.00
2022-10-24T00:20:03.541Z,0.00
2022-10-24T00:21:03.514Z,0.00
2022-10-24T00:22:03.538Z,0.00
2022-10-24T00:23:03.484Z,0.00
2022-10-24T00:24:03.498Z,0.00
2022-10-24T00:25:03.487Z,0.00
2022-10-24T00:26:03.514Z,0.00
2022-10-24T00:27:03.477Z,0.00
2022-10-24T00:28:03.449Z,0.00
2022-10-24T00:29:03.457Z,0.00
2022-10-24T00:30:03.419Z,0.00
2022-10-24T00:31:03.441Z,0.00
2022-10-24T00:32:03.481Z,0.00
2022-10-24T00:33:03.409Z,0.00
2022-10-24T00:34:03.424Z,0.00
2022-10-24T00:35:03.355Z,0.00
2022-10-24T00:36:03.363Z,0.00
2022-10-24T00:37:03.383Z,0.00
2022-10-24T00:38:03.344Z,0.00
2022-10-24T00:39:03.336Z,0.00
2022-10-24T00:40:03.414Z,0.00
2022-10-24T00:41:03.290Z,0.00
2022-10-24T00:42:03.310Z,0.00
2022-10-24T00:43:03.320Z,0.00
2022-10-24T00:44:03.276Z,0.00
2022-10-24T00:45:03.250Z,0.00
2022-10-24T00:46:03.241Z,0.00
2022-10-24T00:47:03.280Z,0.00
2022-10-24T00:48:03.228Z,0.00
2022-10-24T00:49:03.217Z,0.00
2022-10-24T00:50:03.202Z,0.00
2022-10-24T00:51:03.181Z,0.00
2022-10-24T00:52:03.392Z,0.00
2022-10-24T00:53:03.171Z,0.00
2022-10-24T00:54:03.183Z,0.00
2022-10-24T00:55:03.185Z,0.00
2022-10-24T00:56:03.205Z,0.00
2022-10-24T00:57:03.377Z,0.00
2022-10-24T00:58:03.123Z,0.00
2022-10-24T00:59:03.121Z,0.00
2022-10-24T01:00:03.095Z,0.00
2022-10-24T01:01:03.299Z,0.00
2022-10-24T01:02:03.393Z,0.00
2022-10-24T01:03:03.059Z,0.00
2022-10-24T01:04:03.062Z,0.00
2022-10-24T01:05:03.074Z,0.00
2022-10-24T01:06:03.042Z,0.00
2022-10-24T01:07:03.023Z,0.00
2022-10-24T01:08:02.991Z,0.00
2022-10-24T01:09:03.017Z,0.00
2022-10-24T01:10:03.025Z,0.00
2022-10-24T01:11:02.957Z,0.00
2022-10-24T01:12:02.984Z,0.00
2022-10-24T01:13:02.950Z,0.00
2022-10-24T01:14:02.945Z,0.00
2022-10-24T01:15:02.940Z,0.00
2022-10-24T01:16:02.966Z,0.00
2022-10-24T01:17:02.904Z,0.00
2022-10-24T01:18:02.910Z,0.00
2022-10-24T01:19:02.894Z,0.00
2022-10-24T01:20:02.893Z,0.00
2022-10-24T01:21:02.848Z,0.00
2022-10-24T01:22:02.920Z,0.00
2022-10-24T01:23:02.834Z,0.00
2022-10-24T01:24:02.834Z,0.00
2022-10-24T01:25:02.810Z,0.00
2022-10-24T01:26:02.818Z,0.00
2022-10-24T01:27:02.873Z,0.00
2022-10-24T01:28:02.790Z,0.00
2022-10-24T01:29:02.781Z,0.00
2022-10-24T01:30:02.809Z,0.00
2022-10-24T01:31:02.753Z,0.00
2022-10-24T01:32:02.759Z,0.00
2022-10-24T01:33:02.727Z,0.00
2022-10-24T01:34:02.725Z,0.00
2022-10-24T01:35:02.699Z,0.00
2022-10-24T01:36:02.729Z,0.00
2022-10-24T01:37:02.737Z,0.00
2022-10-24T01:38:02.691Z,0.00
2022-10-24T01:39:02.733Z,0.00
2022-10-24T01:40:02.691Z,0.00
2022-10-24T01:41:02.674Z,0.00
2022-10-24T01:42:02.660Z,0.00
2022-10-24T01:43:02.668Z,0.00
2022-10-24T01:44:02.620Z,0.00
2022-10-24T01:45:02.613Z,0.00
2022-10-24T01:46:02.629Z,0.00
2022-10-24T01:47:02.600Z,0.00
2022-10-24T01:48:02.555Z,0.00
2022-10-24T01:49:02.551Z,0.00
2022-10-24T01:50:02.548Z,0.00
2022-10-24T01:51:02.556Z,0.00
2022-10-24T01:52:02.566Z,0.00
2022-10-24T01:53:02.520Z,0.00
2022-10-24T01:54:02.498Z,0.00
2022-10-24T01:55:02.501Z,0.00
2022-10-24T01:56:02.500Z,0.00
2022-10-24T01:57:02.456Z,0.00
2022-10-24T01:58:02.476Z,0.00
2022-10-24T01:59:02.445Z,0.00
2022-10-24T02:00:02.461Z,0.00
2022-10-24T02:01:02.513Z,0.00
2022-10-24T02:02:02.442Z,0.00
2022-10-24T02:03:02.405Z,0.00
2022-10-24T02:04:02.386Z,0.00
2022-10-24T02:05:02.404Z,0.00
2022-10-24T02:06:02.407Z,0.00
2022-10-24T02:07:02.359Z,0.00
2022-10-24T02:08:02.344Z,0.00
2022-10-24T02:09:02.375Z,0.00
2022-10-24T02:10:02.354Z,0.00
2022-10-24T02:11:02.356Z,0.00
2022-10-24T02:12:02.347Z,0.00
2022-10-24T02:13:02.305Z,0.00
2022-10-24T02:14:02.286Z,0.00
2022-10-24T02:15:02.261Z,0.00
2022-10-24T02:16:02.290Z,0.00
2022-10-24T02:17:02.238Z,0.00
2022-10-24T02:18:02.248Z,0.00
2022-10-24T02:19:02.244Z,0.00
2022-10-24T02:20:02.209Z,0.00
2022-10-24T02:21:02.220Z,0.00
2022-10-24T02:22:02.180Z,0.00
2022-10-24T02:23:02.188Z,0.00
2022-10-24T02:24:02.173Z,0.00
2022-10-24T02:25:02.176Z,0.00
2022-10-24T02:26:02.161Z,0.00
2022-10-24T02:27:02.140Z,0.00
2022-10-24T02:28:02.115Z,0.00
2022-10-24T02:29:02.119Z,0.00
2022-10-24T02:30:02.095Z,0.00
2022-10-24T02:31:02.133Z,0.00
2022-10-24T02:32:02.112Z,0.00
2022-10-24T02:33:02.059Z,0.00
2022-10-24T02:34:02.172Z,0.00
2022-10-24T02:35:02.045Z,0.00
2022-10-24T02:36:02.054Z,0.00
2022-10-24T02:37:02.061Z,0.00
2022-10-24T02:38:02.025Z,0.00
2022-10-24T02:39:02.030Z,0.00
2022-10-24T02:40:02.028Z,0.00
2022-10-24T02:41:01.992Z,0.00
2022-10-24T02:42:01.988Z,0.00
2022-10-24T02:43:01.988Z,0.00
2022-10-24T02:44:01.952Z,0.00
2022-10-24T02:45:01.932Z,0.00
2022-10-24T02:46:01.979Z,0.00
2022-10-24T02:47:01.931Z,0.00
2022-10-24T02:48:01.925Z,0.00
2022-10-24T02:49:01.911Z,0.00
2022-10-24T02:50:01.891Z,0.00
2022-10-24T02:51:01.907Z,0.00
2022-10-24T02:52:01.873Z,0.00
2022-10-24T02:53:01.853Z,0.00
2022-10-24T02:54:01.831Z,0.00
2022-10-24T02:55:01.833Z,0.00
2022-10-24T02:56:01.827Z,0.00
2022-10-24T02:57:01.905Z,0.00
2022-10-24T02:58:01.897Z,0.00
2022-10-24T02:59:01.820Z,0.00
2022-10-24T03:00:01.778Z,0.00
2022-10-24T03:01:01.898Z,0.00
2022-10-24T03:02:01.754Z,0.00
2022-10-24T03:03:01.732Z,0.00
2022-10-24T03:04:01.773Z,0.00
2022-10-24T03:05:01.707Z,0.00
2022-10-24T03:06:01.746Z,0.00
2022-10-24T03:07:01.695Z,0.00
2022-10-24T03:08:01.691Z,0.00
2022-10-24T03:09:01.695Z,0.00
2022-10-24T03:10:01.677Z,0.00
2022-10-24T03:11:01.735Z,0.00
2022-10-24T03:12:01.639Z,0.00
2022-10-24T03:13:01.621Z,0.00
2022-10-24T03:14:01.673Z,0.00
2022-10-24T03:15:01.595Z,0.00
2022-10-24T03:16:01.693Z,0.00
2022-10-24T03:17:01.592Z,0.00
2022-10-24T03:18:01.589Z,0.00
2022-10-24T03:19:01.575Z,0.00
2022-10-24T03:20:01.564Z,0.00
2022-10-24T03:21:01.656Z,0.00
2022-10-24T03:22:01.547Z,0.00
2022-10-24T03:23:01.527Z,0.00
2022-10-24T03:24:01.593Z,0.00
2022-10-24T03:25:01.496Z,0.00
2022-10-24T03:26:01.487Z,0.00
2022-10-24T03:27:01.479Z,0.00
2022-10-24T03:28:01.486Z,0.00
2022-10-24T03:29:01.456Z,0.00
2022-10-24T03:30:01.447Z,0.00
2022-10-24T03:31:01.441Z,0.00
2022-10-24T03:32:01.407Z,0.00
2022-10-24T03:33:01.391Z,0.00
2022-10-24T03:34:01.420Z,0.00
2022-10-24T03:35:01.381Z,0.00
2022-10-24T03:36:01.411Z,0.00
2022-10-24T03:37:01.362Z,0.00
2022-10-24T03:38:01.396Z,0.00
2022-10-24T03:39:01.331Z,0.00
2022-10-24T03:40:01.330Z,0.00
2022-10-24T03:41:01.347Z,0.00
2022-10-24T03:42:01.295Z,0.00
2022-10-24T03:43:01.295Z,0.00
2022-10-24T03:44:01.301Z,0.00
2022-10-24T03:45:01.265Z,0.00
2022-10-24T03:46:01.259Z,0.00
2022-10-24T03:47:01.270Z,0.00
2022-10-24T03:48:01.234Z,0.00
2022-10-24T03:50:01.248Z,0.00
2022-10-24T03:51:01.215Z,0.00
2022-10-24T03:52:01.236Z,0.00
2022-10-24T03:53:01.221Z,0.00
2022-10-24T03:54:01.196Z,0.00
2022-10-24T03:55:01.165Z,0.00
2022-10-24T03:56:01.171Z,0.00
2022-10-24T03:57:01.165Z,0.00
2022-10-24T03:58:01.163Z,0.00
2022-10-24T03:59:01.115Z,0.00
2022-10-24T04:00:01.126Z,0.00
2022-10-24T04:01:01.200Z,0.00
2022-10-24T04:02:01.201Z,0.00
2022-10-24T04:03:01.065Z,0.00
2022-10-24T04:04:01.060Z,0.00
2022-10-24T04:05:01.057Z,0.00
2022-10-24T04:06:01.061Z,0.00
2022-10-24T04:07:01.044Z,0.00
2022-10-24T04:08:01.011Z,0.00
2022-10-24T04:09:01.005Z,0.00
2022-10-24T04:10:01.017Z,0.00
2022-10-24T04:11:00.986Z,0.00
2022-10-24T04:12:01.027Z,0.00
2022-10-24T04:13:00.960Z,0.00
2022-10-24T04:15:04.029Z,0.00
2022-10-24T04:16:00.949Z,0.00
2022-10-24T04:17:00.922Z,0.00
2022-10-24T04:18:00.957Z,0.00
2022-10-24T04:19:00.897Z,0.00
2022-10-24T04:20:00.897Z,0.00
2022-10-24T04:21:00.911Z,0.00
2022-10-24T04:22:00.869Z,0.00
2022-10-24T04:23:03.696Z,0.00
2022-10-24T04:24:00.887Z,0.00
2022-10-24T04:25:00.833Z,0.00
2022-10-24T04:26:00.862Z,0.00
2022-10-24T04:27:00.801Z,0.00
2022-10-24T04:28:00.796Z,0.00
2022-10-24T04:29:00.791Z,0.00
2022-10-24T04:30:00.770Z,0.00
2022-10-24T04:31:00.763Z,0.00
2022-10-24T04:32:00.821Z,0.00
2022-10-24T04:33:00.735Z,0.00
2022-10-24T04:34:00.746Z,0.00
2022-10-24T04:35:00.720Z,0.00
2022-10-24T04:36:00.733Z,0.00
2022-10-24T04:37:00.696Z,0.00
2022-10-24T04:38:00.713Z,0.00
2022-10-24T04:40:00.668Z,0.00
2022-10-24T04:41:00.669Z,0.00
2022-10-24T04:42:00.663Z,0.00
2022-10-24T04:43:00.643Z,0.00
2022-10-24T04:44:00.616Z,0.00
2022-10-24T04:45:00.669Z,0.00
2022-10-24T04:46:00.658Z,0.00
2022-10-24T04:47:00.582Z,0.00
2022-10-24T04:48:00.568Z,0.00
2022-10-24T04:49:00.566Z,0.00
2022-10-24T04:50:00.567Z,0.00
2022-10-24T04:51:00.568Z,0.00
2022-10-24T04:52:00.580Z,0.00
2022-10-24T04:53:00.557Z,0.00
2022-10-24T04:54:00.662Z,0.00
2022-10-24T04:55:00.516Z,0.00
2022-10-24T04:56:00.507Z,0.00
2022-10-24T04:57:00.518Z,0.00
2022-10-24T04:58:00.475Z,0.00
2022-10-24T04:59:00.459Z,0.00
2022-10-24T05:00:00.452Z,0.00
2022-10-24T05:01:00.526Z,0.00
2022-10-24T05:02:00.474Z,0.00
2022-10-24T05:03:00.427Z,0.00
2022-10-24T05:05:00.376Z,0.00
2022-10-24T05:06:00.415Z,0.00
2022-10-24T05:07:00.381Z,0.00
2022-10-24T05:08:00.358Z,0.00
2022-10-24T05:09:00.347Z,0.00
2022-10-24T05:10:00.333Z,0.00
2022-10-24T05:11:00.326Z,0.00
2022-10-24T05:12:00.330Z,0.00
2022-10-24T05:13:00.330Z,0.00
2022-10-24T05:14:00.313Z,0.00
2022-10-24T05:15:00.281Z,0.00
2022-10-24T05:16:00.321Z,0.00
2022-10-24T05:17:00.263Z,0.00
2022-10-24T05:18:00.247Z,0.00
2022-10-24T05:19:00.250Z,0.00
2022-10-24T05:20:00.274Z,0.00
2022-10-24T05:21:00.226Z,0.00
2022-10-24T05:22:00.224Z,0.00
2022-10-24T05:23:00.185Z,0.00
2022-10-24T05:24:00.175Z,0.00
2022-10-24T05:25:00.166Z,0.00
2022-10-24T05:26:00.216Z,0.00
2022-10-24T05:27:00.164Z,0.00
2022-10-24T05:28:00.175Z,0.00
2022-10-24T05:29:00.179Z,0.00
2022-10-24T05:30:00.154Z,0.00
2022-10-24T05:31:00.143Z,0.00
2022-10-24T05:32:00.093Z,0.00
2022-10-24T05:33:00.104Z,0.00
2022-10-24T05:34:00.110Z,0.00
2022-10-24T05:35:00.085Z,0.00
2022-10-24T05:36:00.121Z,0.00
2022-10-24T05:37:00.098Z,0.00
2022-10-24T05:38:00.040Z,0.00
2022-10-24T05:39:00.038Z,0.00
2022-10-24T05:40:00.004Z,0.00
2022-10-24T05:41:00.085Z,0.00
2022-10-24T05:41:59.967Z,0.00
2022-10-24T05:42:59.984Z,0.00
2022-10-24T05:43:59.945Z,0.00
2022-10-24T05:45:00.042Z,0.00
2022-10-24T05:45:59.945Z,0.00
2022-10-24T05:46:59.933Z,0.00
2022-10-24T05:47:59.925Z,0.00
2022-10-24T05:48:59.912Z,0.00
2022-10-24T05:49:59.883Z,0.00
2022-10-24T05:50:59.993Z,0.00
2022-10-24T05:51:59.861Z,0.00
2022-10-24T05:52:59.853Z,0.00
2022-10-24T05:53:59.891Z,0.00
2022-10-24T05:55:07.303Z,0.00
2022-10-24T05:56:00.882Z,0.00
2022-10-24T05:56:59.846Z,0.00
2022-10-24T05:57:59.788Z,0.00
2022-10-24T05:58:59.794Z,0.00
2022-10-24T05:59:59.767Z,0.00
2022-10-24T06:00:59.868Z,0.00
2022-10-24T06:02:00.046Z,0.00
2022-10-24T06:02:59.790Z,0.00
2022-10-24T06:03:59.734Z,5.62
2022-10-24T06:04:59.743Z,5.62
2022-10-24T06:05:59.730Z,5.62
2022-10-24T06:06:59.724Z,5.62
2022-10-24T06:07:59.695Z,0.00
2022-10-24T06:08:59.681Z,0.00
2022-10-24T06:09:59.658Z,0.00
2022-10-24T06:10:59.714Z,0.00
2022-10-24T06:11:59.731Z,0.00
2022-10-24T06:12:59.627Z,0.00
2022-10-24T06:13:59.621Z,5.62
2022-10-24T06:14:59.618Z,5.62
2022-10-24T06:15:59.603Z,5.62
2022-10-24T06:16:59.624Z,5.62
2022-10-24T06:17:59.637Z,5.62
2022-10-24T06:18:59.566Z,5.62
2022-10-24T06:19:59.557Z,5.62
2022-10-24T06:20:59.566Z,5.62
2022-10-24T06:21:59.601Z,5.62
2022-10-24T06:22:59.518Z,5.62
2022-10-24T06:23:59.573Z,5.62
2022-10-24T06:24:59.502Z,0.00
2022-10-24T06:25:59.507Z,0.00
2022-10-24T06:26:59.478Z,5.62
2022-10-24T06:27:59.535Z,5.62
2022-10-24T06:28:59.458Z,5.62
2022-10-24T06:29:59.504Z,5.62
2022-10-24T06:30:59.457Z,5.62
2022-10-24T06:31:59.458Z,5.62
2022-10-24T06:32:59.418Z,5.62
2022-10-24T06:33:59.416Z,5.62
2022-10-24T06:34:59.450Z,5.62
2022-10-24T06:35:59.393Z,5.62
2022-10-24T06:36:59.406Z,5.62
2022-10-24T06:37:59.384Z,5.62
2022-10-24T06:38:59.351Z,5.62
2022-10-24T06:39:59.340Z,5.62
2022-10-24T06:40:59.355Z,5.62
2022-10-24T06:41:59.311Z,5.62
2022-10-24T06:42:59.338Z,11.25
2022-10-24T06:43:59.294Z,11.25
2022-10-24T06:45:59.321Z,16.88
2022-10-24T06:46:59.267Z,22.50
2022-10-24T06:47:59.260Z,22.50
2022-10-24T06:48:59.241Z,28.12
2022-10-24T06:49:59.269Z,39.38
2022-10-24T06:50:59.251Z,45.00
2022-10-24T06:51:59.303Z,56.25
2022-10-24T06:52:59.192Z,61.88
2022-10-24T06:53:59.196Z,67.50
2022-10-24T06:54:59.182Z,73.12
2022-10-24T06:55:59.177Z,67.50
2022-10-24T06:56:59.158Z,61.88
2022-10-24T06:57:59.192Z,61.88
2022-10-24T06:58:59.153Z,56.25
2022-10-24T06:59:59.132Z,61.88
2022-10-24T07:00:59.562Z,67.50
2022-10-24T07:02:01.834Z,78.75
2022-10-24T07:03:00.158Z,84.38
2022-10-24T07:03:59.090Z,95.62
2022-10-24T07:04:59.086Z,95.62
2022-10-24T07:05:59.128Z,95.62
2022-10-24T07:06:59.043Z,95.62
2022-10-24T07:07:59.050Z,95.62
2022-10-24T07:08:59.042Z,90.00
2022-10-24T07:09:59.051Z,90.00
2022-10-24T07:10:59.037Z,90.00
2022-10-24T07:11:59.086Z,95.62
2022-10-24T07:12:58.989Z,95.62
2022-10-24T07:14:00.898Z,95.62
2022-10-24T07:14:58.989Z,95.62
2022-10-24T07:15:58.967Z,90.00
2022-10-24T07:16:58.942Z,95.62
2022-10-24T07:17:58.972Z,101.25
2022-10-24T07:18:58.904Z,112.50
2022-10-24T07:19:58.932Z,118.12
2022-10-24T07:20:59.016Z,118.12
2022-10-24T07:21:58.894Z,118.12
2022-10-24T07:22:58.869Z,112.50
2022-10-24T07:23:58.908Z,101.25
2022-10-24T07:24:58.861Z,90.00
2022-10-24T07:25:58.884Z,90.00
2022-10-24T07:26:58.818Z,84.38
2022-10-24T07:27:58.846Z,78.75
2022-10-24T07:28:58.814Z,84.38
2022-10-24T07:30:03.038Z,84.38
2022-10-24T07:30:59.929Z,90.00
2022-10-24T07:31:58.766Z,90.00
2022-10-24T07:32:58.781Z,95.62
2022-10-24T07:33:58.790Z,101.25
2022-10-24T07:34:58.745Z,106.88
2022-10-24T07:35:58.740Z,118.12
2022-10-24T07:36:58.707Z,129.38
2022-10-24T07:37:58.714Z,135.00
2022-10-24T07:38:58.705Z,123.75
2022-10-24T07:39:58.702Z,106.88
2022-10-24T07:40:58.768Z,95.62
2022-10-24T07:41:58.646Z,90.00
2022-10-24T07:42:58.663Z,90.00
2022-10-24T07:43:58.633Z,84.38
2022-10-24T07:44:58.643Z,84.38
2022-10-24T07:45:58.724Z,90.00
2022-10-24T07:46:58.596Z,90.00
2022-10-24T07:47:58.602Z,90.00
2022-10-24T07:48:58.576Z,84.38
2022-10-24T07:49:58.570Z,84.38
2022-10-24T07:50:58.618Z,90.00
2022-10-24T07:51:58.580Z,95.62
2022-10-24T07:52:58.571Z,101.25
2022-10-24T07:53:58.535Z,95.62
2022-10-24T07:54:58.513Z,95.62
2022-10-24T07:55:58.517Z,95.62
2022-10-24T07:56:58.493Z,90.00
2022-10-24T07:57:58.519Z,84.38
2022-10-24T07:58:58.460Z,84.38
2022-10-24T07:59:58.448Z,95.62
2022-10-24T08:00:58.490Z,101.25
2022-10-24T08:01:58.427Z,101.25
2022-10-24T08:02:58.421Z,101.25
2022-10-24T08:03:58.426Z,101.25
2022-10-24T08:04:58.412Z,101.25
2022-10-24T08:05:58.419Z,95.62
2022-10-24T08:06:58.388Z,95.62
2022-10-24T08:08:12.102Z,95.62
2022-10-24T08:08:59.367Z,90.00
2022-10-24T08:09:58.371Z,90.00
2022-10-24T08:10:58.475Z,84.38
2022-10-24T08:11:58.332Z,90.00
2022-10-24T08:12:58.356Z,90.00
2022-10-24T08:13:58.295Z,95.62
2022-10-24T08:14:58.304Z,95.62
2022-10-24T08:15:58.310Z,101.25
2022-10-24T08:16:58.370Z,101.25
2022-10-24T08:17:58.252Z,101.25
2022-10-24T08:18:58.257Z,101.25
2022-10-24T08:19:58.245Z,106.88
2022-10-24T08:20:58.272Z,106.88
2022-10-24T08:21:58.211Z,118.12
2022-10-24T08:22:58.195Z,123.75
2022-10-24T08:23:58.212Z,135.00
2022-10-24T08:24:58.175Z,146.25
2022-10-24T08:25:58.199Z,151.88
2022-10-24T08:26:58.206Z,151.88
2022-10-24T08:27:58.172Z,146.25
2022-10-24T08:28:58.139Z,140.62
2022-10-24T08:29:58.150Z,140.62
2022-10-24T08:30:58.150Z,129.38
2022-10-24T08:31:58.165Z,106.88
2022-10-24T08:32:58.120Z,106.88
2022-10-24T08:33:58.101Z,106.88
2022-10-24T08:34:58.071Z,112.50
2022-10-24T08:35:58.102Z,118.12
2022-10-24T08:36:58.094Z,123.75
2022-10-24T08:37:58.043Z,112.50
2022-10-24T08:38:58.091Z,90.00
2022-10-24T08:39:58.010Z,84.38
2022-10-24T08:40:58.074Z,90.00
2022-10-24T08:42:00.226Z,95.62
2022-10-24T08:42:58.012Z,95.62
2022-10-24T08:43:57.967Z,90.00
2022-10-24T08:44:57.958Z,90.00
2022-10-24T08:45:57.967Z,95.62
2022-10-24T08:46:57.979Z,106.88
2022-10-24T08:47:57.954Z,101.25
2022-10-24T08:52:27.672Z,90.00
2022-10-24T08:53:27.582Z,90.00
2022-10-24T08:54:27.522Z,90.00
2022-10-24T08:56:28.485Z,78.75
2022-10-24T08:57:27.604Z,67.50
2022-10-24T08:58:27.505Z,73.12
2022-10-24T08:59:27.555Z,73.12
2022-10-24T09:00:27.525Z,78.75
2022-10-24T09:01:27.595Z,84.38
2022-10-24T09:02:27.576Z,78.75
2022-10-24T09:03:43.997Z,78.75
2022-10-24T09:04:28.404Z,73.12
2022-10-24T09:05:27.516Z,73.12
2022-10-24T09:06:27.409Z,78.75
2022-10-24T09:07:27.382Z,84.38
2022-10-24T09:08:27.389Z,95.62
2022-10-24T09:09:27.348Z,101.25
2022-10-24T09:10:27.378Z,106.88
2022-10-24T09:11:27.337Z,106.88
2022-10-24T09:12:27.362Z,112.50
2022-10-24T09:13:27.343Z,106.88
2022-10-24T09:14:27.344Z,90.00
2022-10-24T09:15:27.319Z,84.38
2022-10-24T09:16:27.272Z,90.00
2022-10-24T09:17:27.301Z,101.25
2022-10-24T09:18:27.252Z,106.88
2022-10-24T09:19:27.237Z,118.12
2022-10-24T09:20:27.283Z,123.75
2022-10-24T09:21:27.253Z,123.75
2022-10-24T09:22:27.211Z,123.75
2022-10-24T09:23:27.209Z,112.50
2022-10-24T09:24:27.216Z,112.50
2022-10-24T09:25:27.207Z,112.50
2022-10-24T09:26:27.176Z,112.50
2022-10-24T09:27:27.188Z,112.50
2022-10-24T09:28:27.199Z,112.50
2022-10-24T09:29:27.219Z,118.12
2022-10-24T09:30:30.079Z,118.12
2022-10-24T09:31:28.108Z,118.12
2022-10-24T09:32:27.121Z,129.38
2022-10-24T09:33:27.090Z,146.25
2022-10-24T09:34:27.070Z,146.25
2022-10-24T09:35:27.082Z,140.62
2022-10-24T09:36:27.074Z,135.00
2022-10-24T09:37:27.041Z,135.00
2022-10-24T09:38:27.046Z,129.38
2022-10-24T09:39:27.012Z,112.50
2022-10-24T09:40:27.088Z,90.00
2022-10-24T09:41:27.007Z,67.50
2022-10-24T09:42:27.006Z,61.88
2022-10-24T09:43:26.984Z,73.12
2022-10-24T09:44:27.000Z,106.88
2022-10-24T09:45:26.976Z,123.75
2022-10-24T09:46:26.928Z,123.75
2022-10-24T09:47:26.937Z,123.75
2022-10-24T09:48:30.106Z,106.88
2022-10-24T09:49:26.977Z,90.00
2022-10-24T09:50:26.905Z,78.75
2022-10-24T09:51:26.894Z,78.75
2022-10-24T09:52:26.982Z,78.75
2022-10-24T09:53:26.856Z,78.75
2022-10-24T09:54:26.859Z,84.38
2022-10-24T09:55:26.845Z,90.00
2022-10-24T09:56:26.844Z,90.00
2022-10-24T09:57:29.400Z,84.38
2022-10-24T09:58:26.863Z,67.50
2022-10-24T09:59:26.794Z,73.12
2022-10-24T10:00:26.865Z,95.62
2022-10-24T10:01:26.874Z,112.50
2022-10-24T10:02:26.855Z,106.88
2022-10-24T10:03:26.798Z,95.62
2022-10-24T10:04:26.759Z,95.62
2022-10-24T10:05:26.767Z,118.12
2022-10-24T10:06:26.713Z,151.88
2022-10-24T10:07:26.763Z,157.50
2022-10-24T10:08:26.692Z,146.25
2022-10-24T10:09:26.685Z,151.88
2022-10-24T10:10:26.766Z,196.88
2022-10-24T10:11:26.663Z,247.50
2022-10-24T10:12:26.729Z,275.62
2022-10-24T10:13:26.649Z,286.88
2022-10-24T10:14:26.676Z,320.62
2022-10-24T10:15:26.649Z,337.50
2022-10-24T10:16:26.634Z,354.38
2022-10-24T10:17:26.661Z,382.50
2022-10-24T10:18:26.653Z,433.12
2022-10-24T10:19:26.567Z,455.62
2022-10-24T10:20:26.569Z,461.25
2022-10-24T10:21:26.587Z,472.50
2022-10-24T10:22:26.559Z,472.50
2022-10-24T10:23:26.583Z,444.38
2022-10-24T10:24:26.511Z,399.38
2022-10-24T10:25:26.571Z,365.62
2022-10-24T10:26:26.515Z,343.12
2022-10-24T10:27:26.539Z,331.88
2022-10-24T10:28:26.467Z,320.62
2022-10-24T10:29:26.470Z,320.62
2022-10-24T10:30:26.497Z,320.62
2022-10-24T10:31:26.440Z,320.62
2022-10-24T10:32:26.436Z,320.62
2022-10-24T10:33:26.465Z,320.62
2022-10-24T10:34:26.402Z,320.62
2022-10-24T10:35:26.425Z,326.25
2022-10-24T10:36:26.385Z,348.75
2022-10-24T10:37:26.379Z,365.62
2022-10-24T10:38:26.367Z,371.25
2022-10-24T10:39:26.354Z,376.88
2022-10-24T10:40:26.412Z,393.75
2022-10-24T10:41:26.340Z,405.00
2022-10-24T10:42:26.339Z,410.62
2022-10-24T10:43:26.311Z,410.62
2022-10-24T10:44:26.307Z,405.00
2022-10-24T10:45:26.320Z,393.75
2022-10-24T10:46:26.274Z,382.50
2022-10-24T10:47:27.533Z,376.88
2022-10-24T10:48:26.245Z,376.88
2022-10-24T10:49:26.285Z,376.88
2022-10-24T10:50:26.297Z,376.88
2022-10-24T10:51:26.211Z,388.12
2022-10-24T10:52:26.207Z,393.75
2022-10-24T10:53:26.217Z,399.38
2022-10-24T10:54:26.177Z,393.75
2022-10-24T10:55:26.183Z,393.75
2022-10-24T10:56:26.159Z,399.38
2022-10-24T10:57:29.049Z,405.00
2022-10-24T10:58:26.213Z,405.00
2022-10-24T10:59:28.651Z,388.12
2022-10-24T11:00:26.181Z,376.88
2022-10-24T11:01:26.224Z,360.00
2022-10-24T11:02:26.234Z,348.75
2022-10-24T11:03:26.089Z,348.75
2022-10-24T11:04:26.077Z,360.00
2022-10-24T11:05:26.098Z,376.88
2022-10-24T11:06:26.053Z,405.00
2022-10-24T11:07:26.085Z,433.12
2022-10-24T11:08:26.052Z,461.25
2022-10-24T11:09:26.027Z,472.50
2022-10-24T11:10:26.072Z,495.00
2022-10-24T11:11:26.018Z,517.50
2022-10-24T11:12:25.991Z,545.62
2022-10-24T11:13:25.980Z,568.12
2022-10-24T11:14:25.986Z,579.38
2022-10-24T11:15:25.991Z,585.00
2022-10-24T11:16:25.946Z,590.62
2022-10-24T11:17:25.994Z,596.25
2022-10-24T11:18:25.923Z,596.25
2022-10-24T11:19:25.914Z,601.88
2022-10-24T11:20:25.988Z,601.88
2022-10-24T11:21:25.928Z,590.62
2022-10-24T11:22:25.881Z,573.75
2022-10-24T11:23:25.908Z,562.50
2022-10-24T11:24:25.854Z,540.00
2022-10-24T11:25:25.880Z,523.12
2022-10-24T11:26:25.884Z,517.50
2022-10-24T11:27:25.927Z,528.75
2022-10-24T11:28:25.850Z,556.88
2022-10-24T11:29:25.818Z,585.00
2022-10-24T11:30:25.821Z,590.62
2022-10-24T11:31:25.809Z,585.00
2022-10-24T11:32:25.774Z,573.75
2022-10-24T11:33:25.775Z,579.38
2022-10-24T11:34:25.764Z,579.38
2022-10-24T11:35:25.807Z,585.00
2022-10-24T11:36:25.736Z,585.00
2022-10-24T11:37:25.753Z,590.62
2022-10-24T11:38:25.855Z,596.25
2022-10-24T11:39:25.792Z,607.50
2022-10-24T11:40:25.791Z,635.62
2022-10-24T11:41:25.715Z,658.12
2022-10-24T11:42:25.645Z,680.62
2022-10-24T11:43:25.723Z,675.00
2022-10-24T11:44:25.646Z,686.25
2022-10-24T11:45:25.625Z,658.12
2022-10-24T11:46:25.614Z,669.38
2022-10-24T11:47:25.654Z,691.88
2022-10-24T11:48:25.653Z,736.88
2022-10-24T11:49:25.573Z,781.88
2022-10-24T11:50:25.955Z,742.50
2022-10-24T11:51:25.551Z,787.50
2022-10-24T11:52:25.544Z,765.00
2022-10-24T11:53:25.611Z,770.62
2022-10-24T11:54:25.523Z,776.25
2022-10-24T11:55:25.505Z,765.00
2022-10-24T11:56:27.311Z,770.62
2022-10-24T11:57:25.490Z,826.88
2022-10-24T11:58:25.516Z,821.25
2022-10-24T11:59:25.474Z,798.75
2022-10-24T12:00:25.501Z,804.38
2022-10-24T12:01:25.495Z,770.62
2022-10-24T12:02:25.718Z,765.00
2022-10-24T12:03:25.536Z,776.25
2022-10-24T12:04:25.415Z,742.50
2022-10-24T12:05:25.441Z,742.50
2022-10-24T12:06:25.452Z,714.38
2022-10-24T12:07:25.390Z,731.25
2022-10-24T12:08:25.375Z,753.75
2022-10-24T12:09:25.374Z,691.88
2022-10-24T12:10:25.414Z,680.62
2022-10-24T12:11:25.336Z,720.00
2022-10-24T12:12:25.368Z,748.12
2022-10-24T12:13:26.125Z,736.88
2022-10-24T12:14:25.307Z,748.12
2022-10-24T12:15:25.338Z,714.38
2022-10-24T12:16:25.291Z,714.38
2022-10-24T12:17:25.290Z,736.88
2022-10-24T12:18:25.295Z,776.25
2022-10-24T12:19:25.275Z,753.75
2022-10-24T12:20:25.273Z,804.38
2022-10-24T12:21:26.182Z,815.62
2022-10-24T12:23:25.238Z,855.00
2022-10-24T12:24:25.203Z,894.38
2022-10-24T12:25:25.217Z,877.50
2022-10-24T12:26:25.173Z,742.50
2022-10-24T12:27:25.157Z,720.00
2022-10-24T12:28:25.174Z,641.25
2022-10-24T12:29:25.133Z,675.00
2022-10-24T12:30:25.151Z,590.62
2022-10-24T12:31:26.401Z,646.88
2022-10-24T12:32:25.107Z,607.50
2022-10-24T12:33:25.098Z,568.12
2022-10-24T12:34:25.101Z,568.12
2022-10-24T12:35:30.565Z,579.38
2022-10-24T12:36:26.141Z,596.25
2022-10-24T12:37:25.050Z,618.75
2022-10-24T12:38:25.051Z,658.12
2022-10-24T12:40:25.032Z,630.00
2022-10-24T12:41:25.027Z,618.75
2022-10-24T12:42:25.015Z,613.12
2022-10-24T12:43:24.987Z,624.38
2022-10-24T12:44:24.990Z,652.50
2022-10-24T12:45:24.977Z,663.75
2022-10-24T12:46:24.974Z,630.00
2022-10-24T12:47:24.945Z,607.50
2022-10-24T12:48:24.952Z,601.88
2022-10-24T12:49:26.325Z,590.62
2022-10-24T12:50:24.999Z,568.12
2022-10-24T12:51:24.885Z,562.50
2022-10-24T12:52:24.884Z,568.12
2022-10-24T12:53:24.870Z,579.38
2022-10-24T12:54:24.858Z,585.00
2022-10-24T12:55:24.891Z,585.00
2022-10-24T12:56:24.883Z,579.38
2022-10-24T12:57:24.860Z,579.38
2022-10-24T12:58:24.865Z,545.62
2022-10-24T12:59:24.800Z,534.38
2022-10-24T13:00:24.851Z,573.75
2022-10-24T13:01:24.953Z,551.25
2022-10-24T13:02:25.023Z,562.50
2022-10-24T13:03:24.781Z,545.62
2022-10-24T13:04:24.826Z,545.62
2022-10-24T13:05:24.763Z,562.50
2022-10-24T13:06:24.740Z,568.12
2022-10-24T13:07:24.725Z,573.75
2022-10-24T13:08:24.781Z,568.12